Time;durP1;ratioP1;P1;durP2;ratioP2;P2;SDS_P1;SDS_P2;PMS_P1;PMS_P2;Temp;Humidity;BMP_temperature;BMP_pressure;BME280_temperature;BME280_humidity;BME280_pressure;Samples;Min_cycle;Max_cycle;Signal;HPM_P1;HPM_P2
2023/01/21 00:01:06;;;;;;;47.20;28.20;;;;;;;2.42;100.00;99589.41;109942;1274;22271;-70
2023/01/21 00:03:33;;;;;;;45.90;28.40;;;;;;;2.42;100.00;99588.87;110054;1279;22443;-70
2023/01/21 00:06:00;;;;;;;46.40;29.00;;;;;;;2.35;100.00;99589.23;110066;1277;22228;-70
2023/01/21 00:08:27;;;;;;;45.40;28.10;;;;;;;2.34;100.00;99582.76;109960;1279;23123;-69
2023/01/21 00:10:54;;;;;;;51.20;29.10;;;;;;;2.34;100.00;99585.20;110046;1278;22486;-70
2023/01/21 00:13:21;;;;;;;50.00;29.60;;;;;;;2.29;100.00;99585.73;110069;1279;23131;-70
2023/01/21 00:15:48;;;;;;;50.50;29.30;;;;;;;2.22;100.00;99584.45;109980;1279;22379;-70
2023/01/21 00:18:15;;;;;;;50.80;28.50;;;;;;;2.21;100.00;99582.14;110023;1276;23062;-69
2023/01/21 00:20:44;;;;;;;51.70;29.40;;;;;;;2.22;100.00;99577.18;109989;1279;22236;-70
2023/01/21 00:23:11;;;;;;;50.50;30.50;;;;;;;2.15;100.00;99574.06;110093;1279;22207;-70
2023/01/21 00:25:38;;;;;;;48.10;29.30;;;;;;;2.12;100.00;99569.42;110048;1279;22520;-70
2023/01/21 00:28:05;;;;;;;53.20;30.10;;;;;;;2.11;100.00;99563.77;109977;1279;22308;-70
2023/01/21 00:30:32;;;;;;;53.80;30.20;;;;;;;2.06;100.00;99568.82;110056;1272;22302;-70
2023/01/21 00:32:59;;;;;;;51.90;30.30;;;;;;;1.98;100.00;99572.15;110081;1279;22591;-70
2023/01/21 00:35:27;;;;;;;53.80;31.00;;;;;;;1.98;100.00;99573.52;110056;1279;22294;-70
2023/01/21 00:37:54;;;;;;;54.90;30.90;;;;;;;1.98;100.00;99577.03;109982;1279;22286;-69
2023/01/21 00:40:21;;;;;;;54.80;31.70;;;;;;;1.92;100.00;99571.66;110093;1279;22278;-70
2023/01/21 00:42:48;;;;;;;66.90;38.00;;;;;;;1.87;100.00;99574.31;110098;1278;22779;-70
2023/01/21 00:45:15;;;;;;;53.00;32.00;;;;;;;1.88;100.00;99576.11;110074;1279;23092;-70
2023/01/21 00:47:42;;;;;;;55.00;32.90;;;;;;;1.89;100.00;99574.05;110143;1278;23416;-70
2023/01/21 00:50:10;;;;;;;60.80;35.70;;;;;;;1.86;100.00;99579.20;110006;1279;22216;-70
2023/01/21 00:52:37;;;;;;;58.80;33.50;;;;;;;1.81;100.00;99588.70;110066;1279;23026;-70
2023/01/21 00:55:04;;;;;;;61.30;33.80;;;;;;;1.82;100.00;99583.48;110057;1279;22701;-70
2023/01/21 00:57:32;;;;;;;59.90;35.40;;;;;;;1.84;100.00;99580.21;109588;1279;22590;-69
2023/01/21 00:59:59;;;;;;;63.60;36.50;;;;;;;1.81;100.00;99586.34;107233;1279;24038;-69
2023/01/21 01:02:26;;;;;;;61.80;33.60;;;;;;;1.74;100.00;99583.21;107201;1278;22558;-69
2023/01/21 01:04:53;;;;;;;57.40;32.20;;;;;;;1.73;100.00;99577.23;107222;1273;24209;-69
2023/01/21 01:07:20;;;;;;;56.90;34.20;;;;;;;1.75;100.00;99573.84;107251;1279;24361;-70
2023/01/21 01:09:47;;;;;;;60.60;34.90;;;;;;;1.71;100.00;99581.67;107193;1279;24231;-69
2023/01/21 01:12:14;;;;;;;60.50;34.40;;;;;;;1.65;100.00;99579.89;107284;1279;22588;-69
2023/01/21 01:14:41;;;;;;;61.40;33.80;;;;;;;1.64;100.00;99579.65;107187;1279;24420;-70
2023/01/21 01:17:08;;;;;;;66.40;35.20;;;;;;;1.65;100.00;99583.78;107240;1274;23326;-68
2023/01/21 01:19:36;;;;;;;64.30;36.20;;;;;;;1.61;100.00;99582.98;107278;1279;23189;-69
2023/01/21 01:22:02;;;;;;;62.90;34.30;;;;;;;1.58;100.00;99578.02;107233;1279;25313;-69
2023/01/21 01:24:30;;;;;;;61.50;34.70;;;;;;;1.60;100.00;99577.05;107303;1273;24285;-69
2023/01/21 01:26:57;;;;;;;62.10;34.80;;;;;;;1.57;100.00;99578.11;107374;1278;22538;-69
2023/01/21 01:29:24;;;;;;;62.10;35.60;;;;;;;1.51;100.00;99573.27;107297;1279;22533;-69
2023/01/21 01:31:51;;;;;;;63.00;35.20;;;;;;;1.48;100.00;99575.81;107359;1279;22577;-70
2023/01/21 01:34:19;;;;;;;62.00;34.80;;;;;;;1.47;100.00;99574.66;107322;1271;22558;-70
2023/01/21 01:36:46;;;;;;;63.40;34.30;;;;;;;1.46;100.00;99573.98;107190;1278;22526;-69
2023/01/21 01:39:13;;;;;;;64.80;36.70;;;;;;;1.41;100.00;99570.25;106908;1279;22523;-69
2023/01/21 01:41:40;;;;;;;58.90;33.10;;;;;;;1.41;100.00;99567.85;107182;1279;22610;-69
2023/01/21 01:45:06;;;;;;;61.70;34.30;;;;;;;1.42;100.00;99568.84;107194;1279;25357;-69
2023/01/21 01:47:43;;;;;;;65.10;35.20;;;;;;;1.36;100.00;99571.60;106531;1282;23525;-70
2023/01/21 01:50:11;;;;;;;72.80;35.30;;;;;;;1.30;100.00;99568.48;106525;1280;23263;-69
2023/01/21 01:52:39;;;;;;;66.00;38.30;;;;;;;1.31;100.00;99568.20;106947;1276;22529;-69
2023/01/21 01:55:06;;;;;;;64.30;36.50;;;;;;;1.30;100.00;99570.20;107204;1278;23379;-69
2023/01/21 01:57:35;;;;;;;64.50;35.80;;;;;;;1.25;100.00;99578.05;107215;1279;22530;-69
2023/01/21 02:00:06;;;;;;;61.70;35.10;;;;;;;1.26;100.00;99576.16;107196;1278;23642;-69
2023/01/21 02:02:38;;;;;;;90.10;34.90;;;;;;;1.28;100.00;99572.48;107346;1279;23362;-69
2023/01/21 02:05:07;;;;;;;65.10;36.00;;;;;;;1.25;100.00;99573.11;107165;1279;25284;-69
2023/01/21 02:07:41;;;;;;;62.30;34.90;;;;;;;1.24;100.00;99571.92;107677;1279;22550;-69
2023/01/21 02:10:09;;;;;;;64.90;35.30;;;;;;;1.28;100.00;99578.42;107304;1279;22566;-69
2023/01/21 02:12:37;;;;;;;70.70;37.70;;;;;;;1.26;100.00;99573.81;107404;1279;26604;-69
2023/01/21 02:15:04;;;;;;;66.30;37.30;;;;;;;1.21;100.00;99577.70;107089;1279;24197;-69
2023/01/21 02:17:45;;;;;;;59.80;35.00;;;;;;;1.22;100.00;99573.14;107476;1276;24266;-69
2023/01/21 02:20:20;;;;;;;66.80;37.70;;;;;;;1.24;100.00;99574.64;107221;1279;22566;-69
2023/01/21 02:23:19;;;;;;;64.90;35.90;;;;;;;1.19;100.00;99576.83;107247;1279;22535;-69
2023/01/21 02:26:11;;;;;;;62.30;34.70;;;;;;;1.19;100.00;99560.86;107280;1278;25474;-69
2023/01/21 02:28:59;;;;;;;67.90;35.00;;;;;;;1.20;100.00;99587.33;107335;1279;22553;-69
2023/01/21 02:31:32;;;;;;;;;;;;;;;1.16;100.00;99589.90;107305;1274;25919;-69
2023/01/21 02:34:15;;;;;;;65.80;34.50;;;;;;;1.08;100.00;99583.08;107331;1272;24364;-69
2023/01/21 02:37:21;;;;;;;64.10;35.30;;;;;;;1.11;100.00;99608.51;110081;1273;23180;-70
2023/01/21 02:40:08;;;;;;;64.50;35.10;;;;;;;1.12;100.00;99596.75;110027;1276;23002;-70
2023/01/21 02:42:45;;;;;;;63.50;34.30;;;;;;;1.05;100.00;99611.34;110079;1279;22440;-71
2023/01/21 02:45:20;;;;;;;60.20;33.60;;;;;;;1.08;100.00;99602.29;110042;1279;22219;-70
2023/01/21 02:47:56;;;;;;;62.60;34.20;;;;;;;1.10;100.00;99626.33;109953;1279;23073;-70
2023/01/21 02:50:28;;;;;;;63.70;34.40;;;;;;;1.09;100.00;99620.73;110049;1273;22331;-70
2023/01/21 02:52:56;;;;;;;63.70;33.90;;;;;;;1.06;100.00;99634.89;109994;1279;22294;-70
2023/01/21 02:55:35;;;;;;;62.40;34.00;;;;;;;1.10;100.00;99636.52;110063;1279;22279;-69
2023/01/21 02:58:10;;;;;;;60.20;33.30;;;;;;;1.18;100.00;99629.35;109990;1279;22309;-70
2023/01/21 03:00:56;;;;;;;62.70;35.80;;;;;;;1.14;100.00;99635.02;109946;1279;22404;-70
2023/01/21 03:03:39;;;;;;;63.70;35.50;;;;;;;1.13;100.00;99625.04;110103;1278;22523;-70
2023/01/21 03:06:29;;;;;;;61.30;33.70;;;;;;;1.17;100.00;99626.37;110060;1279;22368;-70
2023/01/21 03:09:05;;;;;;;61.00;33.60;;;;;;;1.19;100.00;99614.00;110061;1279;22481;-70
2023/01/21 03:11:32;;;;;;;58.90;33.30;;;;;;;1.14;100.00;99605.19;110076;1279;22284;-70
2023/01/21 03:16:55;;;;;;;62.90;34.50;;;;;;;1.21;100.00;99582.27;109983;1279;22867;-70
2023/01/21 03:19:48;;;;;;;59.30;33.50;;;;;;;1.17;100.00;99599.92;109954;1279;22284;-70
2023/01/21 03:22:18;;;;;;;62.30;32.00;;;;;;;1.18;100.00;99594.20;109974;1279;22196;-70
2023/01/21 03:24:47;;;;;;;64.70;32.80;;;;;;;1.18;100.00;99589.23;110001;1279;22284;-70
2023/01/21 03:27:15;;;;;;;60.40;34.60;;;;;;;1.19;100.00;99599.67;110059;1278;22283;-70
2023/01/21 03:29:42;;;;;;;56.10;32.60;;;;;;;1.16;100.00;99592.14;109951;1279;22308;-70
2023/01/21 03:32:11;;;;;;;57.10;32.90;;;;;;;1.17;100.00;99591.89;109959;1279;22226;-70
2023/01/21 03:34:43;;;;;;;58.80;33.50;;;;;;;1.19;100.00;99611.05;109881;1278;22555;-69
2023/01/21 03:37:14;;;;;;;60.70;34.20;;;;;;;1.15;100.00;99601.57;107136;1279;22533;-69
2023/01/21 03:40:06;;;;;;;58.80;33.30;;;;;;;1.06;100.00;99618.63;107122;1276;22606;-68
2023/01/21 03:42:33;;;;;;;57.70;32.40;;;;;;;1.07;100.00;99611.73;107225;1279;22736;-69
2023/01/21 03:45:00;;;;;;;62.50;33.00;;;;;;;1.08;100.00;99591.06;107325;1279;22528;-68
2023/01/21 03:47:30;;;;;;;62.70;33.20;;;;;;;1.06;100.00;99607.84;107354;1279;25274;-69
2023/01/21 03:50:15;;;;;;;56.70;31.90;;;;;;;1.04;100.00;99605.20;107328;1279;25612;-69
2023/01/21 03:52:43;;;;;;;62.80;33.30;;;;;;;1.08;100.00;99604.36;107188;1276;22538;-69
2023/01/21 03:55:11;;;;;;;56.20;32.20;;;;;;;1.05;100.00;99604.91;107112;1278;24384;-69
2023/01/21 03:57:38;;;;;;;59.60;32.60;;;;;;;1.01;100.00;99613.83;107374;1278;22526;-69
2023/01/21 04:00:06;;;;;;;59.70;31.90;;;;;;;1.03;100.00;99601.16;107383;1278;24225;-69
2023/01/21 04:02:33;;;;;;;60.30;33.00;;;;;;;1.09;100.00;99604.27;107329;1273;25138;-69
2023/01/21 04:05:00;;;;;;;64.20;33.40;;;;;;;1.08;100.00;99602.86;107396;1279;25278;-69
2023/01/21 04:07:27;;;;;;;60.50;32.50;;;;;;;1.06;100.00;99616.05;108116;1279;22416;-69
2023/01/21 04:09:54;;;;;;;58.80;30.60;;;;;;;1.07;100.00;99611.38;110099;1278;23247;-69
2023/01/21 04:12:22;;;;;;;56.90;31.60;;;;;;;1.10;100.00;99607.81;110110;1278;22422;-69
2023/01/21 04:14:48;;;;;;;57.50;32.50;;;;;;;1.06;100.00;99621.31;110081;1279;22927;-69
2023/01/21 04:17:16;;;;;;;56.10;31.20;;;;;;;1.04;100.00;99630.96;110116;1279;22172;-69
2023/01/21 04:19:43;;;;;;;61.20;31.40;;;;;;;1.05;100.00;99624.73;109965;1278;22209;-70
2023/01/21 04:22:10;;;;;;;56.50;31.60;;;;;;;1.09;100.00;99628.23;110107;1279;22178;-69
2023/01/21 04:24:37;;;;;;;56.40;30.50;;;;;;;1.10;100.00;99628.58;109979;1279;22398;-69
2023/01/21 04:27:04;;;;;;;58.90;30.10;;;;;;;1.10;100.00;99627.56;110101;1276;22222;-69
2023/01/21 04:29:31;;;;;;;58.20;29.80;;;;;;;1.15;100.00;99630.44;107909;1278;22589;-70
2023/01/21 04:31:58;;;;;;;58.70;30.40;;;;;;;1.15;100.00;99628.16;107317;1279;25331;-69
2023/01/21 04:34:25;;;;;;;48.80;29.40;;;;;;;1.09;100.00;99618.28;107316;1279;22540;-69
2023/01/21 04:36:52;;;;;;;55.60;30.10;;;;;;;1.09;100.00;99613.42;107353;1279;22816;-70
2023/01/21 04:39:19;;;;;;;56.80;30.50;;;;;;;1.10;100.00;99618.40;107397;1273;25408;-70
2023/01/21 04:41:46;;;;;;;51.50;29.80;;;;;;;1.07;100.00;99627.04;107372;1278;22557;-70
2023/01/21 04:44:13;;;;;;;58.80;29.70;;;;;;;1.07;100.00;99624.41;107340;1279;25403;-69
2023/01/21 04:46:41;;;;;;;52.90;29.50;;;;;;;1.10;100.00;99632.77;107157;1278;23243;-69
2023/01/21 04:49:08;;;;;;;51.40;28.90;;;;;;;1.12;100.00;99631.47;107259;1278;25250;-69
2023/01/21 04:51:35;;;;;;;54.20;31.10;;;;;;;1.07;100.00;99643.33;107392;1279;22560;-69
2023/01/21 04:54:02;;;;;;;56.00;29.60;;;;;;;1.05;100.00;99643.50;107044;1279;24215;-70
2023/01/21 04:56:29;;;;;;;51.20;28.80;;;;;;;1.08;100.00;99633.18;107201;1279;22729;-70
2023/01/21 04:58:56;;;;;;;56.50;28.80;;;;;;;1.07;100.00;99645.68;107135;1272;24313;-70
2023/01/21 05:01:23;;;;;;;52.90;28.80;;;;;;;1.03;100.00;99650.46;107319;1279;22626;-69
2023/01/21 05:03:51;;;;;;;51.40;28.50;;;;;;;1.06;100.00;99640.40;107313;1278;22513;-69
2023/01/21 05:06:18;;;;;;;57.00;30.10;;;;;;;1.10;100.00;99641.38;107279;1279;24263;-70
2023/01/21 05:08:45;;;;;;;52.80;29.40;;;;;;;1.07;100.00;99646.92;107265;1279;22533;-69
2023/01/21 05:11:17;;;;;;;48.40;27.30;;;;;;;1.02;100.00;99642.45;107256;1279;22523;-69
2023/01/21 05:13:44;;;;;;;53.50;28.90;;;;;;;1.04;100.00;99635.92;107222;1257;23328;-69
2023/01/21 05:16:13;;;;;;;49.40;28.40;;;;;;;1.06;100.00;99638.92;107207;1279;24256;-70
2023/01/21 05:18:40;;;;;;;52.20;29.00;;;;;;;1.02;100.00;99632.48;107767;1274;22538;-69
2023/01/21 05:21:07;;;;;;;51.20;28.10;;;;;;;1.04;100.00;99623.42;110091;1279;22399;-70
2023/01/21 05:23:34;;;;;;;54.70;29.40;;;;;;;1.08;100.00;99631.90;109966;1275;22517;-70
2023/01/21 05:26:01;;;;;;;50.50;28.00;;;;;;;1.07;100.00;99632.80;109986;1279;22285;-70
2023/01/21 05:28:28;;;;;;;54.60;27.70;;;;;;;1.11;100.00;99643.31;110044;1277;22362;-70
2023/01/21 05:31:00;;;;;;;54.00;29.10;;;;;;;1.15;100.00;99641.89;110045;1279;22490;-70
2023/01/21 05:33:33;;;;;;;48.60;27.80;;;;;;;1.11;100.00;99639.19;110079;1279;22269;-70
2023/01/21 05:36:00;;;;;;;53.80;28.80;;;;;;;1.15;100.00;99632.98;110049;1278;22300;-70
2023/01/21 05:38:27;;;;;;;54.50;28.10;;;;;;;1.18;100.00;99632.39;110065;1271;22612;-70
2023/01/21 05:40:58;;;;;;;54.10;27.80;;;;;;;1.15;100.00;99628.83;110238;1275;22196;-70
2023/01/21 05:43:25;;;;;;;49.90;26.70;;;;;;;1.14;100.00;99635.97;110188;1276;22488;-70
2023/01/21 05:45:52;;;;;;;48.40;27.90;;;;;;;1.15;100.00;99631.66;110206;1277;22948;-70
2023/01/21 05:48:19;;;;;;;50.20;27.30;;;;;;;1.12;100.00;99622.04;110157;1276;22496;-70
2023/01/21 05:50:47;;;;;;;53.30;28.20;;;;;;;1.11;100.00;99622.11;110228;1275;22430;-70
2023/01/21 05:53:15;;;;;;;49.70;25.80;;;;;;;1.15;100.00;99631.87;110306;1275;23139;-70
2023/01/21 05:55:42;;;;;;;49.10;27.00;;;;;;;1.17;100.00;99640.31;110195;1275;23036;-69
2023/01/21 05:58:09;;;;;;;52.20;26.90;;;;;;;1.14;100.00;99643.46;110261;1275;23075;-70
2023/01/21 06:00:36;;;;;;;47.70;26.80;;;;;;;1.09;100.00;99643.25;110166;1275;23045;-70
2023/01/21 06:03:03;;;;;;;49.60;25.90;;;;;;;1.13;100.00;99637.73;110143;1275;22923;-70
2023/01/21 06:05:30;;;;;;;43.20;24.90;;;;;;;1.17;100.00;99632.19;110094;1275;275276;-70
2023/01/21 06:09:36;;;;;;;49.60;25.80;;;;;;;1.14;100.00;99623.42;104365;1304;545504;-69
2023/01/21 06:12:04;;;;;;;46.70;26.00;;;;;;;1.11;100.00;99630.06;106515;1288;22534;-69
2023/01/21 06:14:31;;;;;;;48.70;26.80;;;;;;;1.14;100.00;99636.79;106495;1288;22569;-69
2023/01/21 06:16:57;;;;;;;48.00;26.60;;;;;;;1.11;100.00;99636.80;106436;1288;24309;-70
2023/01/21 06:19:25;;;;;;;47.10;27.10;;;;;;;1.06;100.00;99641.94;106447;1288;26254;-69
2023/01/21 06:21:52;;;;;;;50.30;24.90;;;;;;;1.06;100.00;99650.69;106633;1288;22911;-70
2023/01/21 06:24:19;;;;;;;47.90;26.90;;;;;;;1.03;100.00;99644.88;106487;1283;240780;-70
2023/01/21 06:26:46;;;;;;;48.60;26.90;;;;;;;0.99;100.00;99638.79;106753;1286;24243;-71
2023/01/21 06:29:13;;;;;;;43.00;24.30;;;;;;;1.00;100.00;99642.21;106555;1280;25322;-70
2023/01/21 06:31:40;;;;;;;51.20;26.10;;;;;;;1.02;100.00;99642.11;106541;1286;22774;-70
2023/01/21 06:34:08;;;;;;;51.20;26.00;;;;;;;0.97;100.00;99638.66;106534;1286;23225;-70
2023/01/21 06:36:35;;;;;;;46.80;24.70;;;;;;;1.00;100.00;99624.02;106658;1286;23393;-70
2023/01/21 06:39:03;;;;;;;46.70;26.00;;;;;;;1.05;100.00;99623.13;106704;1280;22778;-70
2023/01/21 06:41:30;;;;;;;45.00;24.50;;;;;;;1.04;100.00;99624.83;106702;1286;23361;-70
2023/01/21 06:43:57;;;;;;;44.90;24.80;;;;;;;1.06;100.00;99625.98;106691;1286;25328;-69
2023/01/21 06:46:23;;;;;;;44.10;27.40;;;;;;;1.08;100.00;99634.95;106660;1286;22563;-69
2023/01/21 06:48:52;;;;;;;44.40;23.70;;;;;;;1.06;100.00;99642.69;106602;1286;25530;-70
2023/01/21 06:51:19;;;;;;;41.60;23.80;;;;;;;1.09;100.00;99636.30;106730;1286;24383;-69
2023/01/21 06:53:46;;;;;;;51.70;25.70;;;;;;;1.10;100.00;99642.67;106565;1286;24238;-69
2023/01/21 06:56:13;;;;;;;45.20;25.60;;;;;;;1.06;100.00;99652.81;106514;1286;25300;-69
2023/01/21 06:58:40;;;;;;;43.40;24.50;;;;;;;1.05;100.00;99655.47;106486;1286;22552;-70
2023/01/21 07:01:07;;;;;;;41.50;25.00;;;;;;;1.09;100.00;99662.02;106527;1283;24359;-70
2023/01/21 07:03:34;;;;;;;44.10;24.40;;;;;;;1.15;100.00;99668.34;106610;1286;22553;-70
2023/01/21 07:06:01;;;;;;;44.60;25.30;;;;;;;1.13;100.00;99672.55;106781;1280;22601;-71
2023/01/21 07:08:28;;;;;;;48.10;27.60;;;;;;;1.08;100.00;99679.17;107034;1279;25362;-70
2023/01/21 07:10:55;;;;;;;47.60;27.90;;;;;;;1.10;100.00;99686.25;107177;1279;22643;-70
2023/01/21 07:13:22;;;;;;;52.10;30.60;;;;;;;1.09;100.00;99690.10;107276;1274;22998;-70
2023/01/21 07:15:49;;;;;;;46.30;25.90;;;;;;;1.06;100.00;99693.91;107246;1274;22631;-70
2023/01/21 07:18:17;;;;;;;48.10;24.00;;;;;;;1.07;100.00;99706.97;107326;1279;22919;-70
2023/01/21 07:20:43;;;;;;;40.40;23.40;;;;;;;1.09;100.00;99721.41;107262;1276;23273;-70
2023/01/21 07:23:10;;;;;;;43.10;24.40;;;;;;;1.09;100.00;99728.70;107005;1279;23382;-70
2023/01/21 07:25:38;;;;;;;39.40;22.50;;;;;;;1.07;100.00;99730.23;107278;1276;25424;-69
2023/01/21 07:28:05;;;;;;;38.90;22.50;;;;;;;1.07;100.00;99734.77;107152;1279;22576;-69
2023/01/21 07:30:31;;;;;;;43.90;23.60;;;;;;;1.05;100.00;99735.80;107084;1279;22543;-70
2023/01/21 07:33:04;;;;;;;41.90;23.50;;;;;;;1.02;100.00;99741.80;107186;1279;25340;-69
2023/01/21 07:35:31;;;;;;;44.70;23.90;;;;;;;1.00;100.00;99734.42;107308;1279;25503;-70
2023/01/21 07:37:59;;;;;;;47.70;23.80;;;;;;;1.03;100.00;99740.27;107108;1279;25355;-70
2023/01/21 07:40:26;;;;;;;41.60;24.30;;;;;;;1.01;100.00;99755.37;107337;1264;22534;-69
2023/01/21 07:42:53;;;;;;;38.60;23.10;;;;;;;0.94;100.00;99766.34;107260;1279;22564;-70
2023/01/21 07:45:21;;;;;;;45.90;23.00;;;;;;;0.95;100.00;99766.39;107179;1279;23683;-69
2023/01/21 07:47:48;;;;;;;47.00;24.90;;;;;;;0.98;100.00;99768.23;108138;1279;22590;-68
2023/01/21 07:50:15;;;;;;;44.50;25.10;;;;;;;0.99;100.00;99774.83;107241;1279;23274;-69
2023/01/21 07:52:42;;;;;;;48.20;25.40;;;;;;;0.97;100.00;99776.57;107276;1279;23224;-70
2023/01/21 07:55:09;;;;;;;49.40;25.70;;;;;;;0.94;100.00;99782.09;107250;1279;22531;-69
2023/01/21 07:57:38;;;;;;;43.60;24.80;;;;;;;0.98;100.00;99782.05;108748;1279;22515;-70
2023/01/21 08:00:06;;;;;;;45.80;23.50;;;;;;;1.01;100.00;99776.55;109880;1279;22228;-71
2023/01/21 08:02:39;;;;;;;47.00;24.60;;;;;;;0.98;100.00;99774.35;109894;1279;23140;-71
2023/01/21 08:05:07;;;;;;;47.80;24.70;;;;;;;0.93;100.00;99780.73;109898;1279;22834;-70
2023/01/21 08:07:34;;;;;;;39.60;22.60;;;;;;;0.94;100.00;99786.19;109906;1279;22583;-70
2023/01/21 08:12:50;;;;;;;40.80;25.10;;;;;;;0.97;100.00;99781.44;105469;1305;558175;-72
2023/01/21 08:15:18;;;;;;;41.30;24.20;;;;;;;0.97;100.00;99790.30;107342;1286;27596;-72
2023/01/21 08:17:47;;;;;;;39.40;23.50;;;;;;;1.00;100.00;99789.77;106972;1288;22526;-72
2023/01/21 08:20:14;;;;;;;40.30;23.60;;;;;;;1.04;100.00;99790.50;107610;1278;22523;-71
2023/01/21 08:22:42;;;;;;;43.90;24.20;;;;;;;1.03;100.00;99802.66;107743;1270;22633;-71
2023/01/21 08:25:10;;;;;;;39.70;22.90;;;;;;;0.98;100.00;99796.98;107439;1275;230743;-71
2023/01/21 08:27:36;;;;;;;41.90;23.40;;;;;;;0.97;100.00;99806.76;107633;1275;24500;-71
2023/01/21 08:30:05;;;;;;;42.30;22.50;;;;;;;1.00;100.00;99806.42;110306;1270;22451;-72
2023/01/21 08:32:32;;;;;;;41.00;22.40;;;;;;;0.99;100.00;99806.92;110381;1273;22367;-70
2023/01/21 08:34:59;;;;;;;41.10;23.40;;;;;;;0.94;100.00;99809.89;110295;1269;23033;-71
2023/01/21 08:37:26;;;;;;;42.10;22.90;;;;;;;0.95;100.00;99809.77;110347;1267;22426;-72
2023/01/21 08:39:53;;;;;;;;;;;;;;;1.02;100.00;99806.90;110383;1275;23218;-70
2023/01/21 08:42:23;;;;;;;42.10;24.60;;;;;;;1.02;100.00;99811.27;110374;1272;22371;-72
2023/01/21 08:44:50;;;;;;;41.60;24.10;;;;;;;0.97;100.00;99813.64;110361;1272;22476;-72
2023/01/21 08:47:17;;;;;;;41.40;22.90;;;;;;;0.97;100.00;99832.65;110413;1273;22282;-72
2023/01/21 08:49:44;;;;;;;;;;;;;;;1.02;100.00;99837.55;110418;1274;22496;-70
2023/01/21 08:52:11;;;;;;;45.60;23.60;;;;;;;0.99;100.00;99824.73;110392;1269;22526;-71
2023/01/21 08:54:40;;;;;;;43.80;24.30;;;;;;;0.95;100.00;99826.80;110392;1274;22303;-71
2023/01/21 08:57:07;;;;;;;44.60;24.40;;;;;;;1.00;100.00;99819.98;110428;1274;23071;-71
2023/01/21 08:59:34;;;;;;;42.00;24.60;;;;;;;1.07;100.00;99835.16;110017;1273;22517;-70
2023/01/21 09:02:01;;;;;;;42.30;25.50;;;;;;;1.06;100.00;99829.42;107732;1274;22555;-71
2023/01/21 09:04:28;;;;;;;42.90;25.50;;;;;;;1.01;100.00;99846.27;107800;1274;23219;-71
2023/01/21 09:06:57;;;;;;;44.00;24.90;;;;;;;1.04;100.00;99842.06;107836;1274;23151;-70
2023/01/21 09:09:24;;;;;;;45.40;25.50;;;;;;;1.06;100.00;99849.96;110287;1267;22268;-71
2023/01/21 09:11:53;;;;;;;48.60;26.50;;;;;;;1.04;100.00;99850.22;107648;1269;25468;-71
2023/01/21 09:14:21;;;;;;;40.30;25.60;;;;;;;0.99;100.00;99852.28;107697;1274;23170;-70
2023/01/21 09:16:48;;;;;;;52.80;25.70;;;;;;;0.99;100.00;99863.29;107633;1267;22525;-70
2023/01/21 09:19:16;;;;;;;46.00;26.70;;;;;;;1.03;100.00;99857.36;107483;1267;26134;-71
2023/01/21 09:21:43;;;;;;;53.60;27.90;;;;;;;1.00;100.00;99849.14;109032;1254;23328;-72
2023/01/21 09:24:10;;;;;;;;;;;;;;;0.95;100.00;99838.40;107664;1273;22535;-71
2023/01/21 09:26:42;;;;;;;47.90;26.60;;;;;;;0.94;100.00;99817.27;107658;1269;22660;-71
2023/01/21 09:29:10;;;;;;;49.40;26.80;;;;;;;0.96;100.00;99812.29;107491;1252;22649;-72
2023/01/21 09:31:37;;;;;;;;;;;;;;;0.99;100.00;99822.91;107519;1270;25505;-71
2023/01/21 09:34:05;;;;;;;50.50;27.10;;;;;;;0.96;100.00;99820.70;107533;1270;22547;-71
2023/01/21 09:36:33;;;;;;;57.60;27.90;;;;;;;0.96;100.00;99810.68;110408;1275;23093;-72
2023/01/21 09:39:00;;;;;;;52.00;28.50;;;;;;;1.08;100.00;99815.10;110415;1275;22231;-72
2023/01/21 09:41:41;;;;;;;53.30;28.90;;;;;;;1.17;100.00;99816.38;110427;1275;23575;-72
2023/01/21 09:44:29;;;;;;;53.60;28.50;;;;;;;1.22;100.00;99819.80;108930;1275;22584;-72
2023/01/21 09:47:31;;;;;;;51.00;28.20;;;;;;;1.31;100.00;99826.58;109230;1269;23401;-71
2023/01/21 09:50:02;;;;;;;49.10;28.20;;;;;;;1.39;100.00;99807.82;107628;1272;24205;-71
2023/01/21 09:52:30;;;;;;;55.60;29.70;;;;;;;1.38;100.00;99812.04;107668;1274;23246;-71
2023/01/21 09:54:56;;;;;;;52.20;29.10;;;;;;;1.37;100.00;99809.27;107672;1275;22573;-71
2023/01/21 09:57:54;;;;;;;46.90;28.20;;;;;;;1.40;100.00;99825.32;107690;1275;25487;-72
2023/01/21 10:00:27;;;;;;;54.60;29.90;;;;;;;1.44;100.00;99825.14;107647;1275;22788;-72
2023/01/21 10:03:12;;;;;;;53.80;30.10;;;;;;;1.38;100.00;99822.90;107590;1267;25364;-71
2023/01/21 10:05:43;;;;;;;57.70;28.30;;;;;;;1.36;100.00;99825.58;107465;1269;25536;-72
2023/01/21 10:08:17;;;;;;;46.50;27.40;;;;;;;1.39;100.00;99812.48;107356;1274;23052;-71
2023/01/21 10:10:49;;;;;;;53.00;29.60;;;;;;;1.39;100.00;99809.89;107758;1269;22423;-72
2023/01/21 10:13:22;;;;;;;55.70;29.20;;;;;;;1.37;100.00;99816.21;108884;1272;22582;-70
2023/01/21 10:15:59;;;;;;;52.10;29.60;;;;;;;1.39;100.00;99841.02;110409;1275;22290;-73
2023/01/21 10:18:27;;;;;;;54.30;28.80;;;;;;;1.41;100.00;99837.05;110387;1275;23133;-72
2023/01/21 10:21:18;;;;;;;55.00;29.90;;;;;;;1.38;100.00;99835.06;110411;1275;22276;-71
2023/01/21 10:23:47;;;;;;;62.60;31.20;;;;;;;1.34;100.00;99819.77;110361;1275;22438;-72
2023/01/21 10:26:13;;;;;;;59.50;30.10;;;;;;;1.35;100.00;99810.77;108960;1275;25523;-69
2023/01/21 10:28:42;;;;;;;54.40;30.80;;;;;;;1.40;100.00;99817.11;107662;1275;23379;-69
2023/01/21 10:31:21;;;;;;;69.30;41.60;;;;;;;1.44;100.00;99815.98;108572;1275;26310;-70
2023/01/21 10:33:48;;;;;;;70.80;41.30;;;;;;;1.44;100.00;99815.90;107563;1275;23292;-71
2023/01/21 10:36:18;;;;;;;100.30;50.60;;;;;;;1.41;100.00;99821.65;107487;1272;25488;-71
2023/01/21 10:38:49;;;;;;;87.00;43.90;;;;;;;1.44;100.00;99829.48;107438;1275;22601;-71
2023/01/21 10:41:48;;;;;;;67.00;39.60;;;;;;;1.47;100.00;99831.54;107507;1275;24235;-71
2023/01/21 10:44:23;;;;;;;72.30;37.60;;;;;;;1.44;100.00;99826.23;108168;1275;22278;-71
2023/01/21 10:47:14;;;;;;;68.70;34.30;;;;;;;1.43;100.00;99825.48;110433;1267;23350;-71
2023/01/21 10:49:47;;;;;;;59.80;31.60;;;;;;;1.44;100.00;99816.11;108037;1275;22619;-71
2023/01/21 10:52:37;;;;;;;61.40;32.50;;;;;;;1.42;100.00;99812.39;107270;1275;22516;-71
2023/01/21 10:55:17;;;;;;;55.40;31.30;;;;;;;1.36;100.00;99811.80;107548;1275;23405;-71
2023/01/21 10:58:24;;;;;;;58.80;29.70;;;;;;;1.38;100.00;99810.43;107551;1275;22551;-71
2023/01/21 11:00:51;;;;;;;52.90;28.20;;;;;;;1.42;100.00;99826.48;109299;1275;22712;-70
2023/01/21 11:03:34;;;;;;;49.40;27.90;;;;;;;1.36;100.00;99833.70;109702;1267;22421;-71
2023/01/21 11:06:03;;;;;;;52.60;27.70;;;;;;;1.36;100.00;99823.73;110501;1275;23270;-72
2023/01/21 11:08:30;;;;;;;43.80;26.50;;;;;;;1.38;100.00;99811.59;110404;1275;22435;-72
2023/01/21 11:10:56;;;;;;;;;;;;;;;1.36;100.00;99824.91;110244;1275;22426;-72
2023/01/21 11:13:24;;;;;;;109.10;52.00;;;;;;;1.37;100.00;99832.21;110448;1275;23009;-73
2023/01/21 11:15:53;;;;;;;57.20;32.70;;;;;;;1.41;100.00;99837.20;110416;1275;22353;-71
2023/01/21 11:18:29;;;;;;;72.20;43.30;;;;;;;1.44;100.00;99825.65;110365;1273;22452;-73
2023/01/21 11:20:58;;;;;;;62.00;33.80;;;;;;;1.43;100.00;99827.75;110298;1270;23180;-72
2023/01/21 11:23:30;;;;;;;71.70;39.80;;;;;;;1.48;100.00;99835.33;110171;1275;22559;-73
2023/01/21 11:26:09;;;;;;;72.80;45.30;;;;;;;1.52;100.00;99846.13;107745;1275;25048;-73
2023/01/21 11:29:18;;;;;;;62.10;35.40;;;;;;;1.54;100.00;99839.36;109720;1274;22530;-70
2023/01/21 11:31:50;;;;;;;49.10;27.20;;;;;;;1.48;100.00;99839.12;107632;1270;24380;-71
2023/01/21 11:34:21;;;;;;;61.20;36.60;;;;;;;1.49;100.00;99840.61;107443;1275;22694;-71